Yanco Ag Institutue, New South Wales

4:28 PM AEST on September 21, 2014 (GMT +1000)
LEETON | Change Station
CLOSE
Current Station
Personal Weather Station
Location: LEETON, NSW
Elevation: 453 ft
Nearby Weather Stations

Elev 453 ft 34.55 °S, 146.37 °E | Updated 8 seconds ago

Clear
Clear
76.1 °F
Feels Like 77 °F
N
3.4
Wind Variable Wind from SE
Gusts 6.9 mph

Today
High -- | Low -- °F
--% Chance of Precip.
Yesterday
High -- | Low -- °F
Precip. -- in
6:06 AM 6:09 PM
Waning Crescent, 8% visible
Pressure 30.27 in
Visibility 6.2 miles
Clouds
Heat Index 77 °F
Dew Point 33 °F
Humidity 21%
Rainfall 0.00 in
Snow Depth Not available.
UV Not available.
Pollen Not available.
Air Quality Not available.
Flu Activity Not available.
METAR YGTH 210600Z AUTO 14007KT 9999 // NCD 22/M03 Q1025

More Conditions Fewer Conditions

Pressure 30.27 in
Visibility 6.2 miles
Clouds
Heat Index 77 °F
Dew Point 33 °F
Humidity 21%
Rainfall 0.00 in
Snow Depth Not available.
UV Not available.
Pollen Not available.
Air Quality Not available.
Flu Activity Not available.
METAR YGTH 210600Z AUTO 14007KT 9999 // NCD 22/M03 Q1025

More Conditions Fewer Conditions

10-Day Weather Forecast

Almanac

Astronomy

Sep. 21, 2014 Rise Set
Actual Time 6:06 AM AEST 6:09 PM AEST
Civil Twilight 5:40 AM AEST 6:34 PM AEST
Nautical Twilight 5:11 AM AEST 7:04 PM AEST
Astronomical Twilight 4:42 AM AEST 7:33 PM AEST
Moon 4:07 AM AEST 3:30 PM AEST
Length of Visible Light 12h 53m
Length of Day
12h 03m
Tomorrow will be 2m 8s longer.
Waning Crescent, 8% of the Moon is Illuminated
Today
Waning Crescent
Sep 24
New
Oct 1
First Quarter
Oct 8
Full
Oct 15
Last Quarter

Yesterday's Extremes

Country Highs Country Lows

Community

WunderPhotos

Upload Photos

1,755,098 photos uploaded!

Nearby

Snow Depth

Not available.

Earthquake Activity

City Distance Mag. Time & Date
No recent earthquake activity has been reported nearby.
Minimum magnitude displayed is 2.5.

Coastal Water Temperatures

Place Temperature
No Stations Reporting

Nearby Weather Stations